Wilsie, West Virginia
Current Conditions -  °F | °C
As of 2:55 AM on Monday 24 Nov 2014 (Local Time) from KW22 Reporting Station
Broken Clouds Broken Clouds  
Wind Chill: 63°   Ceiling: 6000
Heat Index: 63°   Visibility: 10mi
Dew Point: 48°   Wind: 17mph
Humidity: 59%   Direction: 190°S
Pressure: 29.5"   Gusts: 30mph
Location:  38.69°N, 80.89°W
Report Text: KW22 240755Z AUTO 19015G26KT 10SM SCT046 BKN060 BKN080 17/09 A2950 RMK AO2
Loading
Personal Weather Stations






























Interactive Weather Map New forecast layout! Learn more

10-Day Weather Forecast

Advertisements
Track Severe Weather on mobile